Time;durP1;ratioP1;P1;durP2;ratioP2;P2;SDS_P1;SDS_P2;PMS_P1;PMS_P2;Temp;Humidity;BMP_temperature;BMP_pressure;BME280_temperature;BME280_humidity;BME280_pressure;Samples;Min_cycle;Max_cycle;Signal;HPM_P1;HPM_P2
2022/06/07 00:02:10;;;;;;;4.35;0.70;;;13.00;90.90;;;;;;6243623;23;20026;-73
2022/06/07 00:04:38;;;;;;;4.13;0.68;;;13.10;90.60;;;;;;6242858;22;20016;-70
2022/06/07 00:07:07;;;;;;;0.90;0.52;;;13.10;90.30;;;;;;6243580;22;20001;-73
2022/06/07 00:09:34;;;;;;;1.48;0.50;;;13.20;89.90;;;;;;6243615;22;20444;-74
2022/06/07 00:12:03;;;;;;;0.90;0.55;;;13.30;90.00;;;;;;6243205;22;20366;-75
2022/06/07 00:14:32;;;;;;;3.50;0.68;;;13.40;90.20;;;;;;6243844;22;20326;-72
2022/06/07 00:16:59;;;;;;;2.28;0.80;;;13.40;90.00;;;;;;6244239;22;20082;-67
2022/06/07 00:19:27;;;;;;;2.78;0.60;;;13.50;89.60;;;;;;6242542;22;20000;-70
2022/06/07 00:21:54;;;;;;;2.05;0.60;;;13.50;89.40;;;;;;6243585;22;20029;-67
2022/06/07 00:24:22;;;;;;;1.73;0.50;;;13.60;89.70;;;;;;6243821;23;20415;-70
2022/06/07 00:26:49;;;;;;;4.22;1.17;;;13.70;89.20;;;;;;6242970;22;20004;-74
2022/06/07 00:29:17;;;;;;;3.65;0.60;;;13.70;89.10;;;;;;6243728;22;20000;-70
2022/06/07 00:31:44;;;;;;;1.60;0.50;;;13.80;88.20;;;;;;6243411;22;20015;-73
2022/06/07 00:34:12;;;;;;;4.90;1.58;;;13.80;88.00;;;;;;6243511;22;20019;-75
2022/06/07 00:36:40;;;;;;;1.85;0.50;;;13.90;88.60;;;;;;6243688;22;20422;-72
2022/06/07 00:39:08;;;;;;;2.08;0.57;;;13.90;87.20;;;;;;6242773;22;19996;-71
2022/06/07 00:41:36;;;;;;;2.10;0.60;;;14.00;86.40;;;;;;6242706;22;20007;-74
2022/06/07 00:44:26;;;;;;;1.98;0.60;;;14.10;87.10;;;;;;6243003;22;20000;-72
2022/06/07 00:47:10;;;;;;;4.13;0.77;;;14.20;87.20;;;;;;6224894;23;20005;-70
2022/06/07 00:49:53;;;;;;;1.15;0.50;;;14.20;87.30;;;;;;6242198;22;20007;-70
2022/06/07 00:52:23;;;;;;;1.13;0.70;;;14.30;85.10;;;;;;6242786;22;20028;-70
2022/06/07 00:54:51;;;;;;;0.50;0.40;;;14.40;85.20;;;;;;6241487;23;20062;-69
2022/06/07 00:57:18;;;;;;;2.15;0.60;;;14.50;85.30;;;;;;6242543;22;20004;-72
2022/06/07 00:59:46;;;;;;;0.75;0.40;;;14.60;85.40;;;;;;6242319;22;20030;-72
2022/06/07 01:02:13;;;;;;;3.25;0.93;;;14.70;85.10;;;;;;6241990;22;20050;-69
2022/06/07 01:04:41;;;;;;;0.90;0.43;;;14.70;84.20;;;;;;6243583;22;20016;-69
2022/06/07 01:12:39;;;;;;;1.38;0.50;;;14.80;83.60;;;;;;6241279;23;20043;-72
2022/06/07 01:15:10;;;;;;;1.35;0.73;;;14.80;82.00;;;;;;6242718;22;20012;-73
2022/06/07 01:17:37;;;;;;;0.98;0.60;;;14.80;83.30;;;;;;6242418;22;20034;-71
2022/06/07 01:20:06;;;;;;;2.67;0.50;;;14.90;83.20;;;;;;6241694;22;20017;-69
2022/06/07 01:22:33;;;;;;;2.22;0.63;;;15.10;82.50;;;;;;6241591;22;19996;-69
2022/06/07 01:25:01;;;;;;;0.80;0.40;;;15.10;82.10;;;;;;6241695;22;20442;-69
2022/06/07 01:27:29;;;;;;;2.03;0.50;;;15.20;80.50;;;;;;6242833;22;20000;-70
2022/06/07 01:29:56;;;;;;;1.27;0.50;;;15.20;81.70;;;;;;6242372;22;20457;-68
2022/06/07 01:32:24;;;;;;;0.80;0.40;;;15.30;81.10;;;;;;6241504;22;20414;-68
2022/06/07 01:34:53;;;;;;;0.82;0.40;;;15.50;81.00;;;;;;6241829;22;20496;-70
2022/06/07 01:37:21;;;;;;;0.30;0.30;;;15.60;79.10;;;;;;6241220;23;20015;-69
2022/06/07 01:42:34;;;;;;;1.88;0.40;;;15.80;79.30;;;;;;6242061;23;20066;-70
2022/06/07 01:45:02;;;;;;;0.32;0.30;;;15.90;77.70;;;;;;6242064;22;20004;-71
2022/06/07 01:47:33;;;;;;;1.13;0.40;;;16.00;77.20;;;;;;6241773;22;19996;-68
2022/06/07 01:50:02;;;;;;;1.20;0.30;;;16.10;76.60;;;;;;6242621;22;20012;-72
2022/06/07 01:52:33;;;;;;;0.40;0.30;;;16.20;76.10;;;;;;6242597;22;20008;-73
2022/06/07 01:55:12;;;;;;;1.30;0.32;;;16.20;75.80;;;;;;5087263;27;20441;-67
2022/06/07 01:57:40;;;;;;;0.35;0.30;;;16.30;76.10;;;;;;5054156;28;20032;-71
2022/06/07 02:00:08;;;;;;;1.27;0.30;;;16.40;76.30;;;;;;5048564;28;20022;-72
2022/06/07 02:02:35;;;;;;;1.20;0.30;;;16.70;76.40;;;;;;5048065;28;20021;-71
2022/06/07 02:05:03;;;;;;;1.20;0.30;;;16.90;76.50;;;;;;5052190;28;20045;-71
2022/06/07 02:07:31;;;;;;;1.83;0.50;;;17.10;75.80;;;;;;5046028;28;20029;-70
2022/06/07 02:09:58;;;;;;;0.30;0.30;;;17.10;74.40;;;;;;5049487;28;20043;-72
2022/06/07 02:12:26;;;;;;;2.80;0.30;;;17.20;74.10;;;;;;5064176;28;20032;-71
2022/06/07 02:14:53;;;;;;;0.88;0.43;;;17.20;73.80;;;;;;5047844;28;20037;-74
2022/06/07 02:17:20;;;;;;;0.68;0.30;;;17.10;73.00;;;;;;5045378;28;20066;-71
2022/06/07 02:19:48;;;;;;;0.30;0.30;;;17.10;73.00;;;;;;5046538;28;20484;-68
2022/06/07 02:22:15;;;;;;;0.30;0.30;;;17.10;72.50;;;;;;5046310;28;20010;-69
2022/06/07 02:24:42;;;;;;;0.30;0.30;;;17.00;72.20;;;;;;5047309;28;20096;-71
2022/06/07 02:27:14;;;;;;;0.85;0.45;;;17.10;73.90;;;;;;5044275;28;20366;-70
2022/06/07 02:29:48;;;;;;;1.27;0.50;;;17.20;72.80;;;;;;5038571;28;20047;-69
2022/06/07 02:32:21;;;;;;;1.48;0.30;;;17.50;71.70;;;;;;5050263;28;20025;-69
2022/06/07 02:34:51;;;;;;;;;;;17.60;71.00;;;;;;5056879;28;20068;-70
2022/06/07 02:37:19;;;;;;;0.55;0.55;;;17.70;71.60;;;;;;5047554;28;19980;-72
2022/06/07 02:39:47;;;;;;;1.80;0.20;;;17.90;70.90;;;;;;5046334;28;20050;-71
2022/06/07 02:42:16;;;;;;;0.75;0.40;;;17.70;70.70;;;;;;5048635;28;20033;-69
2022/06/07 02:44:44;;;;;;;0.28;0.20;;;17.50;70.80;;;;;;5066939;28;20404;-69
2022/06/07 02:47:11;;;;;;;0.35;0.35;;;17.40;69.80;;;;;;5063541;28;20474;-68
2022/06/07 02:49:38;;;;;;;0.50;0.30;;;17.60;69.10;;;;;;5059587;28;20041;-70
2022/06/07 02:52:06;;;;;;;0.30;0.30;;;17.70;69.50;;;;;;5044228;28;20645;-70
2022/06/07 02:54:34;;;;;;;1.17;0.40;;;18.00;69.10;;;;;;5044972;28;20053;-69
2022/06/07 02:57:01;;;;;;;0.55;0.40;;;18.40;67.30;;;;;;5045291;28;20017;-68
2022/06/07 02:59:28;;;;;;;0.95;0.43;;;18.40;67.20;;;;;;5045991;28;20544;-70
2022/06/07 03:01:56;;;;;;;1.40;0.40;;;18.60;66.90;;;;;;5046327;28;20017;-68
2022/06/07 03:04:23;;;;;;;2.38;0.63;;;18.70;67.40;;;;;;5045200;28;20033;-68
2022/06/07 03:06:50;;;;;;;0.50;0.40;;;18.90;65.80;;;;;;5032015;28;20167;-69
2022/06/07 03:09:18;;;;;;;1.85;0.50;;;18.80;65.60;;;;;;5031153;28;20069;-71
2022/06/07 03:11:45;;;;;;;0.55;0.40;;;18.80;66.40;;;;;;5031834;28;20018;-72
2022/06/07 03:14:13;;;;;;;0.35;0.35;;;19.20;65.90;;;;;;5032314;28;20382;-70
2022/06/07 03:16:40;;;;;;;0.88;0.40;;;19.50;64.70;;;;;;5032377;28;20018;-70
2022/06/07 03:19:08;;;;;;;1.08;0.50;;;19.50;64.30;;;;;;5032506;28;20033;-69
2022/06/07 03:21:35;;;;;;;0.50;0.50;;;19.50;64.50;;;;;;5033922;28;20018;-72
2022/06/07 03:24:03;;;;;;;1.55;0.40;;;19.60;64.40;;;;;;5034340;28;20026;-69
2022/06/07 03:26:30;;;;;;;0.20;0.20;;;19.70;64.60;;;;;;5034056;28;20029;-70
2022/06/07 03:28:58;;;;;;;2.25;0.40;;;19.80;63.20;;;;;;5034100;28;20021;-69
2022/06/07 03:31:25;;;;;;;0.90;0.38;;;20.00;63.00;;;;;;5033568;28;20588;-70
2022/06/07 03:33:53;;;;;;;1.30;0.40;;;20.30;61.70;;;;;;5034183;28;20025;-69
2022/06/07 03:36:28;;;;;;;5.00;0.52;;;20.70;61.60;;;;;;5033779;28;20022;-71
2022/06/07 03:38:59;;;;;;;2.60;0.40;;;21.20;59.20;;;;;;5033881;28;20018;-71
2022/06/07 03:41:28;;;;;;;1.05;0.55;;;21.10;60.00;;;;;;5033276;28;20037;-68
2022/06/07 03:43:55;;;;;;;4.22;0.40;;;21.20;59.90;;;;;;5034015;28;20492;-69
2022/06/07 03:46:26;;;;;;;0.55;0.30;;;21.50;58.90;;;;;;5033877;28;20029;-68
2022/06/07 03:48:54;;;;;;;0.35;0.35;;;21.30;58.10;;;;;;5034125;28;20096;-67
2022/06/07 03:51:24;;;;;;;0.30;0.30;;;21.40;58.10;;;;;;5031294;28;20377;-68
2022/06/07 03:53:51;;;;;;;0.50;0.30;;;21.10;57.80;;;;;;5032157;28;20517;-69
2022/06/07 03:56:21;;;;;;;0.75;0.40;;;21.20;58.00;;;;;;5032871;28;20397;-70
2022/06/07 03:58:49;;;;;;;3.50;0.40;;;21.10;58.20;;;;;;5033302;28;20052;-69
2022/06/07 04:01:20;;;;;;;0.20;0.20;;;21.40;58.00;;;;;;5032273;28;20049;-70
2022/06/07 04:03:49;;;;;;;1.10;0.40;;;21.50;57.50;;;;;;5048430;28;20116;-68
2022/06/07 04:06:24;;;;;;;0.80;0.40;;;21.10;58.10;;;;;;5033471;28;20017;-69
2022/06/07 04:08:52;;;;;;;3.53;0.30;;;20.70;58.30;;;;;;5033291;28;20055;-68
2022/06/07 04:11:22;;;;;;;2.20;0.30;;;20.20;59.00;;;;;;5032580;28;20033;-69
2022/06/07 04:13:50;;;;;;;1.20;0.40;;;19.50;59.90;;;;;;5033682;28;20060;-69
2022/06/07 04:16:20;;;;;;;2.58;0.40;;;19.00;60.90;;;;;;5032738;28;20053;-70
2022/06/07 04:18:48;;;;;;;1.75;0.40;;;18.60;61.50;;;;;;5033101;28;20564;-68
2022/06/07 04:21:17;;;;;;;3.80;0.50;;;18.30;62.10;;;;;;5032556;28;20029;-69
2022/06/07 04:23:45;;;;;;;0.43;0.30;;;18.00;63.60;;;;;;5049429;28;20061;-67
2022/06/07 04:26:23;;;;;;;0.60;0.20;;;17.80;63.80;;;;;;5052813;28;20072;-67
2022/06/07 04:28:50;;;;;;;1.58;0.30;;;17.60;63.90;;;;;;5043131;28;20104;-68
2022/06/07 04:31:20;;;;;;;0.52;0.40;;;17.50;64.70;;;;;;5037808;28;20068;-69
2022/06/07 04:33:49;;;;;;;0.80;0.28;;;17.50;65.00;;;;;;5051783;28;20095;-67
2022/06/07 04:36:21;;;;;;;1.08;0.38;;;17.40;64.80;;;;;;5051757;28;20017;-70
2022/06/07 04:38:51;;;;;;;0.40;0.30;;;17.20;64.90;;;;;;5051537;28;20465;-73
2022/06/07 04:41:20;;;;;;;1.88;0.40;;;17.10;65.80;;;;;;5036061;28;20107;-73
2022/06/07 04:43:49;;;;;;;1.15;0.30;;;17.00;66.60;;;;;;5045316;28;20436;-70
2022/06/07 04:46:17;;;;;;;1.42;0.52;;;17.10;66.70;;;;;;5051950;28;20059;-75
2022/06/07 04:48:46;;;;;;;1.85;0.40;;;17.00;66.70;;;;;;5051845;28;20066;-68
2022/06/07 04:51:29;;;;;;;0.60;0.40;;;17.00;67.30;;;;;;5044201;28;20059;-71
2022/06/07 04:53:58;;;;;;;3.28;0.40;;;17.00;67.90;;;;;;5042800;28;20045;-72
2022/06/07 04:56:28;;;;;;;1.65;0.40;;;17.10;68.10;;;;;;5027635;28;20021;-68
2022/06/07 04:58:58;;;;;;;0.57;0.50;;;17.20;67.50;;;;;;5030161;28;20378;-71
2022/06/07 05:01:28;;;;;;;0.40;0.40;;;17.20;66.90;;;;;;5030699;28;20424;-70
2022/06/07 05:03:56;;;;;;;1.75;0.43;;;17.20;67.20;;;;;;5039842;28;20623;-76
2022/06/07 05:06:29;;;;;;;1.10;0.32;;;17.30;66.50;;;;;;5044184;28;20021;-69
2022/06/07 05:09:07;;;;;;;3.08;0.55;;;17.40;66.40;;;;;;5030790;28;20029;-72
2022/06/07 05:11:34;;;;;;;1.95;0.40;;;17.50;65.90;;;;;;5040689;28;20021;-68
2022/06/07 05:14:04;;;;;;;0.88;0.45;;;17.40;66.40;;;;;;5040154;28;20086;-68
2022/06/07 05:16:32;;;;;;;1.35;0.40;;;17.30;66.20;;;;;;5030127;28;20029;-71
2022/06/07 05:19:02;;;;;;;0.47;0.30;;;17.20;67.00;;;;;;5031203;28;20025;-74
2022/06/07 05:21:30;;;;;;;1.80;0.30;;;17.00;66.00;;;;;;5030418;28;20508;-71
2022/06/07 05:23:57;;;;;;;0.40;0.30;;;16.90;66.60;;;;;;5035207;28;20029;-74
2022/06/07 05:26:58;;;;;;;1.08;0.40;;;16.90;66.60;;;;;;5044310;28;20036;-71
2022/06/07 05:29:47;;;;;;;1.08;0.45;;;16.90;66.30;;;;;;5028766;28;20037;-74
2022/06/07 05:32:15;;;;;;;1.02;0.30;;;17.00;67.00;;;;;;5031332;28;20017;-73
2022/06/07 05:34:43;;;;;;;0.50;0.30;;;17.20;65.90;;;;;;5033975;28;20128;-67
2022/06/07 05:37:16;;;;;;;1.75;0.43;;;17.50;65.20;;;;;;5030824;28;20031;-67
2022/06/07 05:39:43;;;;;;;;;;;17.60;65.20;;;;;;5031345;28;20486;-68
2022/06/07 05:42:12;;;;;;;2.45;0.40;;;17.60;64.80;;;;;;5031128;28;19917;-69
2022/06/07 05:44:40;;;;;;;1.30;0.30;;;17.50;66.30;;;;;;5034387;28;20064;-68
2022/06/07 05:47:08;;;;;;;0.95;0.60;;;17.40;65.10;;;;;;5030497;28;20060;-72
2022/06/07 05:49:36;;;;;;;0.38;0.30;;;17.30;66.10;;;;;;5026777;28;20026;-70
2022/06/07 05:52:04;;;;;;;0.80;0.40;;;17.30;66.30;;;;;;5030435;28;20025;-71
2022/06/07 05:54:34;;;;;;;0.80;0.40;;;17.30;65.90;;;;;;5034160;28;20049;-72
2022/06/07 05:57:02;;;;;;;2.28;0.40;;;17.30;66.60;;;;;;5030983;28;20061;-69
2022/06/07 05:59:30;;;;;;;1.67;0.60;;;17.30;67.30;;;;;;5029124;28;20033;-70
2022/06/07 06:01:57;;;;;;;2.85;0.63;;;17.40;66.40;;;;;;5030607;28;20067;-69
2022/06/07 06:04:25;;;;;;;0.80;0.30;;;17.50;66.40;;;;;;5043781;28;20025;-69
2022/06/07 06:06:58;;;;;;;1.13;0.40;;;17.50;66.50;;;;;;5049557;28;20017;-70
2022/06/07 06:12:11;;;;;;;0.88;0.40;;;17.30;67.10;;;;;;5024969;28;20056;-69
2022/06/07 06:14:38;;;;;;;0.73;0.40;;;17.10;67.60;;;;;;5026145;28;20497;-70
2022/06/07 06:17:06;;;;;;;2.33;0.40;;;16.80;67.70;;;;;;5030262;28;20025;-67
2022/06/07 06:19:33;;;;;;;3.17;0.50;;;16.50;68.70;;;;;;5015325;28;20030;-71
2022/06/07 06:22:01;;;;;;;0.88;0.50;;;16.20;69.30;;;;;;5034305;28;20047;-69
2022/06/07 06:24:28;;;;;;;0.80;0.35;;;16.00;70.00;;;;;;5037913;28;20021;-74
2022/06/07 06:26:56;;;;;;;0.88;0.40;;;15.80;71.00;;;;;;5038264;28;20044;-69
2022/06/07 06:29:24;;;;;;;1.02;0.50;;;15.60;71.30;;;;;;5029982;28;20570;-72
2022/06/07 06:31:52;;;;;;;1.20;0.50;;;15.40;72.20;;;;;;5029397;28;20028;-75
2022/06/07 06:34:20;;;;;;;2.03;0.50;;;15.30;71.90;;;;;;5029891;28;20059;-70
2022/06/07 06:36:47;;;;;;;3.65;0.98;;;15.10;72.20;;;;;;5030976;28;20024;-72
2022/06/07 06:39:15;;;;;;;0.70;0.50;;;15.00;72.80;;;;;;5043342;28;20048;-70
2022/06/07 06:41:45;;;;;;;1.73;1.25;;;14.90;73.00;;;;;;5063518;28;20108;-72
2022/06/07 06:44:13;;;;;;;4.57;0.70;;;14.90;73.60;;;;;;5034011;28;20032;-69
2022/06/07 06:46:44;;;;;;;1.88;0.52;;;14.70;74.40;;;;;;5032470;28;20063;-72
2022/06/07 06:49:14;;;;;;;0.68;0.50;;;14.60;73.20;;;;;;5045419;28;20401;-73
2022/06/07 06:51:42;;;;;;;2.08;0.70;;;14.60;73.10;;;;;;5048568;28;20052;-75
2022/06/07 06:54:13;;;;;;;0.85;0.70;;;14.50;73.10;;;;;;5033314;28;20077;-69
2022/06/07 06:56:40;;;;;;;2.88;0.80;;;14.50;73.60;;;;;;5033472;28;20017;-71
2022/06/07 06:59:11;;;;;;;1.05;0.52;;;14.40;73.90;;;;;;5034131;28;20056;-73
2022/06/07 07:01:39;;;;;;;1.92;0.73;;;14.30;73.90;;;;;;5032811;28;20024;-75
2022/06/07 07:04:11;;;;;;;1.23;0.60;;;14.30;73.90;;;;;;5039739;28;20417;-69
2022/06/07 07:06:40;;;;;;;1.17;0.77;;;14.20;73.40;;;;;;5033167;28;20025;-68
2022/06/07 07:09:08;;;;;;;1.13;0.50;;;14.20;73.80;;;;;;5034467;28;20041;-71
2022/06/07 07:11:43;;;;;;;2.05;0.60;;;14.20;73.80;;;;;;5033618;28;20025;-73
2022/06/07 07:14:13;;;;;;;1.38;0.35;;;14.10;74.00;;;;;;5033681;28;20038;-71
2022/06/07 07:16:47;;;;;;;1.80;0.65;;;14.00;74.30;;;;;;5035939;28;20729;-72
2022/06/07 07:19:15;;;;;;;0.93;0.82;;;14.10;74.10;;;;;;5040480;28;20123;-70
2022/06/07 07:21:46;;;;;;;0.98;0.73;;;14.10;74.40;;;;;;5053287;28;20036;-69
2022/06/07 07:24:21;;;;;;;2.72;1.17;;;14.00;74.30;;;;;;5042065;28;20033;-73
2022/06/07 07:26:50;;;;;;;3.72;1.65;;;14.00;74.50;;;;;;5033060;28;20025;-73
2022/06/07 07:29:20;;;;;;;2.83;0.90;;;14.00;74.80;;;;;;5033129;28;20018;-72
2022/06/07 07:31:47;;;;;;;2.05;1.38;;;13.90;74.90;;;;;;5067035;28;20125;-72
2022/06/07 07:34:16;;;;;;;3.95;1.35;;;13.90;74.50;;;;;;5037301;28;20055;-75
2022/06/07 07:36:50;;;;;;;1.45;1.00;;;13.90;74.50;;;;;;5044807;28;20028;-70
2022/06/07 07:39:18;;;;;;;3.33;1.30;;;13.90;74.00;;;;;;5038536;28;20069;-69
2022/06/07 07:41:51;;;;;;;8.43;2.75;;;14.00;74.00;;;;;;5033077;28;20049;-67
2022/06/07 07:44:19;;;;;;;2.90;1.65;;;14.00;73.80;;;;;;5042677;28;20692;-72
2022/06/07 07:46:48;;;;;;;4.78;3.58;;;14.00;73.70;;;;;;5057689;28;20049;-71
2022/06/07 07:49:18;;;;;;;2.53;0.90;;;14.00;74.00;;;;;;5032366;28;20021;-70
2022/06/07 07:51:48;;;;;;;2.35;1.65;;;14.00;73.80;;;;;;5032596;28;20029;-71
2022/06/07 07:54:18;;;;;;;3.92;1.13;;;14.00;74.30;;;;;;5038067;28;20486;-71
2022/06/07 07:56:46;;;;;;;1.52;0.85;;;14.00;74.40;;;;;;5026727;28;20021;-70
2022/06/07 07:59:16;;;;;;;1.25;0.70;;;14.00;74.50;;;;;;5031638;28;20030;-75
2022/06/07 08:01:44;;;;;;;3.97;1.00;;;14.00;75.10;;;;;;5031110;28;20458;-69
2022/06/07 08:04:11;;;;;;;0.90;0.60;;;14.00;74.70;;;;;;5040695;28;20112;-68
2022/06/07 08:06:39;;;;;;;20.15;13.95;;;14.00;74.90;;;;;;5043667;28;20018;-68
2022/06/07 08:09:08;;;;;;;6.93;5.32;;;14.00;74.80;;;;;;5033862;28;20021;-68
2022/06/07 08:11:38;;;;;;;2.47;1.35;;;13.90;75.30;;;;;;5052652;28;20432;-69
2022/06/07 08:14:09;;;;;;;2.28;0.68;;;13.80;75.70;;;;;;5048757;28;20125;-69
2022/06/07 08:16:36;;;;;;;0.93;0.60;;;13.80;75.80;;;;;;5044438;28;20067;-68
2022/06/07 08:19:04;;;;;;;2.35;0.60;;;13.80;76.40;;;;;;5032750;28;20441;-68
2022/06/07 08:21:31;;;;;;;2.15;1.10;;;13.80;76.20;;;;;;5032660;28;20013;-67
2022/06/07 08:23:59;;;;;;;2.67;0.90;;;13.70;76.80;;;;;;5046702;28;20483;-68
2022/06/07 08:26:28;;;;;;;1.08;0.50;;;13.70;77.30;;;;;;5045697;28;20013;-70
2022/06/07 08:28:56;;;;;;;1.98;0.60;;;13.70;77.60;;;;;;5032454;28;20021;-72
2022/06/07 08:31:26;;;;;;;0.98;0.60;;;13.60;78.00;;;;;;5032563;28;20051;-69
2022/06/07 08:39:26;;;;;;;2.80;0.80;;;13.50;79.60;;;;;;5032521;28;20033;-69
2022/06/07 08:42:00;;;;;;;1.95;0.60;;;13.40;80.30;;;;;;5032306;28;20028;-70
2022/06/07 08:44:51;;;;;;;2.25;0.60;;;13.30;80.80;;;;;;5044143;28;20044;-69
2022/06/07 08:47:38;;;;;;;0.77;0.50;;;13.20;81.60;;;;;;5037979;28;20029;-68
2022/06/07 08:50:25;;;;;;;1.90;0.90;;;13.10;82.60;;;;;;5039791;28;20033;-67
2022/06/07 08:53:00;;;;;;;2.25;0.90;;;13.00;83.20;;;;;;5050602;28;20055;-68
2022/06/07 08:55:44;;;;;;;2.85;0.80;;;13.00;83.90;;;;;;5051503;28;20032;-69
2022/06/07 08:58:37;;;;;;;2.35;0.90;;;12.80;84.70;;;;;;5031912;28;20462;-68
2022/06/07 09:01:22;;;;;;;1.02;0.52;;;12.70;85.00;;;;;;5032120;28;20036;-69
2022/06/07 09:03:59;;;;;;;1.10;0.65;;;12.60;85.40;;;;;;5040392;28;20158;-66
2022/06/07 09:06:32;;;;;;;1.60;0.60;;;12.60;86.40;;;;;;5045152;28;20018;-68
2022/06/07 09:09:00;;;;;;;1.15;0.50;;;12.50;87.10;;;;;;5032118;28;20037;-69
2022/06/07 09:14:52;;;;;;;0.88;0.63;;;12.30;88.30;;;;;;5044959;28;20044;-68
2022/06/07 09:17:21;;;;;;;1.83;0.68;;;12.20;88.90;;;;;;5048097;28;20087;-70
2022/06/07 09:19:50;;;;;;;2.42;0.85;;;12.30;88.80;;;;;;5042773;28;20051;-70
2022/06/07 09:22:25;;;;;;;0.82;0.60;;;12.20;88.70;;;;;;5046657;28;20382;-69
2022/06/07 09:25:07;;;;;;;0.90;0.63;;;12.20;88.90;;;;;;5050043;28;20565;-72
2022/06/07 09:27:35;;;;;;;0.80;0.57;;;12.20;89.10;;;;;;5062728;28;20412;-71
2022/06/07 09:30:17;;;;;;;4.30;0.98;;;12.10;89.70;;;;;;5050752;28;20262;-67
2022/06/07 09:32:45;;;;;;;3.20;1.20;;;12.10;90.00;;;;;;5049867;28;20013;-67
2022/06/07 09:35:36;;;;;;;1.45;0.93;;;12.10;90.20;;;;;;5047534;28;20491;-68
2022/06/07 09:38:12;;;;;;;1.65;0.80;;;12.00;90.50;;;;;;5048330;28;20017;-73
2022/06/07 09:40:53;;;;;;;2.92;1.38;;;11.90;90.70;;;;;;5050842;28;20024;-71
2022/06/07 09:43:28;;;;;;;1.88;0.80;;;11.90;91.10;;;;;;5050479;28;20025;-68
2022/06/07 09:46:07;;;;;;;4.63;1.38;;;11.80;91.00;;;;;;5042846;28;20021;-71
2022/06/07 09:48:45;;;;;;;3.42;1.88;;;11.80;91.10;;;;;;5031290;28;20028;-68
2022/06/07 09:51:25;;;;;;;2.50;1.20;;;11.70;91.30;;;;;;5065263;28;20411;-67
2022/06/07 09:54:14;;;;;;;4.78;1.83;;;11.80;91.40;;;;;;5050425;28;20056;-68
2022/06/07 09:57:07;;;;;;;4.72;1.23;;;11.70;91.50;;;;;;5050058;28;20028;-67
2022/06/07 09:59:54;;;;;;;4.05;1.70;;;11.70;91.60;;;;;;5036028;28;20370;-69
2022/06/07 10:02:46;;;;;;;2.03;0.98;;;11.60;91.70;;;;;;5030379;28;20022;-67
2022/06/07 10:05:31;;;;;;;2.70;1.13;;;11.50;91.80;;;;;;5050278;28;20025;-68
2022/06/07 10:08:07;;;;;;;2.15;1.30;;;11.50;91.80;;;;;;5033695;28;20049;-69
2022/06/07 10:11:02;;;;;;;3.35;0.90;;;11.40;91.80;;;;;;5028869;28;20406;-70
2022/06/07 10:14:02;;;;;;;1.20;0.80;;;11.50;91.80;;;;;;5031413;28;20033;-68
2022/06/07 10:16:53;;;;;;;1.98;1.20;;;11.50;91.60;;;;;;5052168;28;20163;-69
2022/06/07 10:19:53;;;;;;;1.90;0.82;;;11.50;91.60;;;;;;5033550;28;20549;-73
2022/06/07 10:22:31;;;;;;;1.58;0.80;;;11.40;91.80;;;;;;5034646;28;20045;-69
2022/06/07 10:25:17;;;;;;;1.70;0.90;;;11.40;91.80;;;;;;5032990;28;20536;-68
2022/06/07 10:27:54;;;;;;;1.73;0.90;;;11.40;91.90;;;;;;5026391;28;20474;-70
2022/06/07 10:30:24;;;;;;;2.22;0.80;;;11.30;91.90;;;;;;5034037;28;20355;-69
2022/06/07 10:33:33;;;;;;;2.00;1.00;;;11.30;91.90;;;;;;5031025;28;20104;-69
2022/06/07 10:36:19;;;;;;;1.52;0.90;;;11.30;91.90;;;;;;5032526;28;20061;-70
2022/06/07 10:38:59;;;;;;;2.78;0.77;;;11.20;92.00;;;;;;5066035;28;20025;-70
2022/06/07 10:41:39;;;;;;;1.55;0.77;;;11.20;92.10;;;;;;5037886;28;20450;-66
2022/06/07 10:44:24;;;;;;;1.63;0.90;;;11.10;92.20;;;;;;5048667;28;20017;-65
2022/06/07 10:46:52;;;;;;;1.70;0.90;;;11.10;92.50;;;;;;5054658;28;20025;-69
2022/06/07 10:49:45;;;;;;;1.83;0.70;;;11.10;92.40;;;;;;5053590;28;20131;-66
2022/06/07 10:52:25;;;;;;;1.70;1.00;;;11.10;92.40;;;;;;5034005;28;20091;-66
2022/06/07 10:55:19;;;;;;;6.50;4.07;;;11.00;92.50;;;;;;5039012;28;20044;-72
2022/06/07 10:58:26;;;;;;;4.30;2.72;;;11.00;92.60;;;;;;5054525;28;20018;-66
2022/06/07 11:01:16;;;;;;;1.33;0.75;;;11.00;92.70;;;;;;5052682;28;20021;-69
2022/06/07 11:09:19;;;;;;;2.53;0.77;;;10.90;92.70;;;;;;5043670;28;20029;-70
2022/06/07 11:09:59;;;;;;;2.58;0.70;;;10.80;92.90;;;;;;5055420;28;20094;-68
2022/06/07 11:12:47;;;;;;;2.75;1.52;;;10.80;92.90;;;;;;5054506;28;20150;-71
2022/06/07 11:15:44;;;;;;;1.85;0.98;;;10.90;93.10;;;;;;5019696;28;20029;-68
2022/06/07 11:18:22;;;;;;;2.72;1.33;;;10.90;93.10;;;;;;5035889;28;20038;-70
2022/06/07 11:21:02;;;;;;;2.17;1.00;;;10.80;93.30;;;;;;5036411;28;20135;-69
2022/06/07 11:23:43;;;;;;;1.50;0.80;;;10.80;93.20;;;;;;5054391;28;20058;-67
2022/06/07 11:26:17;;;;;;;1.70;0.95;;;10.70;93.30;;;;;;5053261;28;20036;-69
2022/06/07 11:28:49;;;;;;;1.42;0.90;;;10.70;93.30;;;;;;5054596;28;20029;-67
2022/06/07 11:31:35;;;;;;;2.28;1.05;;;10.60;93.50;;;;;;5054193;28;20104;-69
2022/06/07 11:34:14;;;;;;;4.47;3.03;;;10.60;93.50;;;;;;5053938;28;20123;-67
2022/06/07 11:36:43;;;;;;;3.47;1.85;;;10.60;94.00;;;;;;5053650;28;20116;-69
2022/06/07 11:39:37;;;;;;;3.25;1.95;;;10.50;94.00;;;;;;5054203;28;20024;-69
2022/06/07 11:42:22;;;;;;;2.22;1.08;;;10.50;94.10;;;;;;5053938;28;20021;-67
2022/06/07 11:45:06;;;;;;;1.65;0.90;;;10.50;94.10;;;;;;5052558;28;20027;-68
2022/06/07 11:48:03;;;;;;;1.95;1.00;;;10.40;94.10;;;;;;5054024;28;20436;-69
2022/06/07 11:50:43;;;;;;;2.92;1.20;;;10.50;94.20;;;;;;5054076;28;20028;-67
2022/06/07 11:53:32;;;;;;;2.10;1.35;;;10.40;94.20;;;;;;5053428;28;20393;-69
2022/06/07 11:56:25;;;;;;;2.40;1.25;;;10.40;94.50;;;;;;5053493;28;20082;-68
2022/06/07 11:59:23;;;;;;;2.33;1.43;;;10.30;94.50;;;;;;5053273;28;20492;-68
2022/06/07 12:02:02;;;;;;;2.08;1.15;;;10.30;94.60;;;;;;5053648;28;20687;-68
2022/06/07 12:04:36;;;;;;;4.05;2.35;;;10.20;94.80;;;;;;5053498;28;20431;-67
2022/06/07 12:07:11;;;;;;;4.32;2.00;;;10.20;95.00;;;;;;5053302;28;20064;-67
2022/06/07 12:09:45;;;;;;;2.83;1.23;;;10.20;95.10;;;;;;5052957;28;20025;-67
2022/06/07 12:12:36;;;;;;;2.13;1.23;;;10.20;95.00;;;;;;5069466;28;20477;-67
2022/06/07 12:15:19;;;;;;;4.30;1.83;;;10.10;95.10;;;;;;5053498;28;20123;-68
2022/06/07 12:18:06;;;;;;;4.45;1.92;;;10.10;95.00;;;;;;5052962;28;20029;-70
2022/06/07 12:20:37;;;;;;;5.00;3.20;;;10.10;94.90;;;;;;5053938;28;20496;-71
2022/06/07 12:23:16;;;;;;;2.75;1.48;;;10.00;95.00;;;;;;5053898;28;20039;-72
2022/06/07 12:26:01;;;;;;;2.58;1.55;;;10.10;95.00;;;;;;5054455;28;20410;-68
2022/06/07 12:28:32;;;;;;;3.42;2.35;;;10.00;95.10;;;;;;5053082;28;20017;-73
2022/06/07 12:31:10;;;;;;;4.72;1.90;;;10.00;95.20;;;;;;5067992;28;20025;-72
2022/06/07 12:33:38;;;;;;;1.60;1.10;;;10.00;95.20;;;;;;5052851;28;20025;-71
2022/06/07 12:36:25;;;;;;;2.22;1.67;;;9.90;95.20;;;;;;5053053;28;20059;-69
2022/06/07 12:38:55;;;;;;;2.47;1.48;;;9.90;95.40;;;;;;5051535;28;20128;-72
2022/06/07 12:41:25;;;;;;;5.00;1.85;;;9.90;95.30;;;;;;5052417;28;20048;-68
2022/06/07 12:44:00;;;;;;;2.25;1.65;;;9.90;95.30;;;;;;5052664;28;20024;-69
2022/06/07 12:46:45;;;;;;;3.13;1.60;;;9.80;95.30;;;;;;5052936;28;20108;-68
2022/06/07 12:49:27;;;;;;;2.20;1.17;;;9.80;95.50;;;;;;5053168;28;20025;-68
2022/06/07 12:52:13;;;;;;;3.47;1.42;;;9.80;94.80;;;;;;5025055;28;20029;-71
2022/06/07 12:54:46;;;;;;;0.80;0.60;;;9.80;94.00;;;;;;5052295;28;20059;-71
2022/06/07 12:57:38;;;;;;;1.42;0.85;;;9.80;93.80;;;;;;5052525;28;20025;-72
2022/06/07 13:00:20;;;;;;;1.02;0.63;;;9.90;93.20;;;;;;5052015;28;20082;-69
2022/06/07 13:02:58;;;;;;;1.17;0.40;;;9.90;92.60;;;;;;5052737;28;20035;-71
2022/06/07 13:05:36;;;;;;;2.67;0.50;;;10.00;92.10;;;;;;5051512;28;20265;-71
2022/06/07 13:08:19;;;;;;;0.65;0.38;;;10.10;91.80;;;;;;5051879;28;20033;-69
2022/06/07 13:10:47;;;;;;;0.73;0.63;;;10.10;91.50;;;;;;5052330;28;20017;-69
2022/06/07 13:13:41;;;;;;;0.43;0.43;;;10.20;91.30;;;;;;5052495;28;20075;-71
2022/06/07 13:16:08;;;;;;;0.55;0.45;;;10.20;91.10;;;;;;5050777;28;20097;-68
2022/06/07 13:18:41;;;;;;;1.30;0.40;;;10.20;90.90;;;;;;5051980;28;20052;-71
2022/06/07 13:21:35;;;;;;;0.75;0.30;;;10.30;90.70;;;;;;5051970;28;20025;-67
2022/06/07 13:24:03;;;;;;;0.40;0.40;;;10.20;90.50;;;;;;5052164;28;20026;-70
2022/06/07 13:26:43;;;;;;;1.38;0.47;;;10.30;90.70;;;;;;5051575;28;20025;-70
2022/06/07 13:29:18;;;;;;;1.15;0.50;;;10.30;90.60;;;;;;5051754;28;20116;-69
2022/06/07 13:32:00;;;;;;;0.70;0.40;;;10.20;90.60;;;;;;5052094;28;20066;-73
2022/06/07 13:34:36;;;;;;;0.55;0.40;;;10.20;90.70;;;;;;5051585;28;20028;-69
2022/06/07 13:37:17;;;;;;;0.40;0.40;;;10.20;90.60;;;;;;5011873;28;20025;-72
2022/06/07 13:40:01;;;;;;;0.45;0.40;;;10.20;90.50;;;;;;5012214;28;20026;-70
2022/06/07 13:42:34;;;;;;;0.40;0.40;;;10.20;90.40;;;;;;5012271;28;20068;-70
2022/06/07 13:45:13;;;;;;;0.77;0.47;;;10.20;90.70;;;;;;5027454;28;20033;-71